createdAt,value
2023-01-13T00:00:24.600Z,74.45
2023-01-13T00:03:12.425Z,74.59
2023-01-13T00:05:40.666Z,74.78
2023-01-13T00:08:08.760Z,74.95
2023-01-13T00:10:37.937Z,74.94
2023-01-13T00:13:06.023Z,75.02
2023-01-13T00:15:34.142Z,74.82
2023-01-13T00:18:02.099Z,74.93
2023-01-13T00:20:30.361Z,74.81
2023-01-13T00:23:00.233Z,74.63
2023-01-13T00:25:28.514Z,74.92
2023-01-13T00:27:56.811Z,74.66
2023-01-13T00:30:24.625Z,74.82
2023-01-13T00:32:52.872Z,74.80
2023-01-13T00:35:23.829Z,74.85
2023-01-13T00:37:51.659Z,75.03
2023-01-13T00:40:19.967Z,74.89
2023-01-13T00:43:07.090Z,74.86
2023-01-13T00:45:35.001Z,74.53
2023-01-13T00:48:03.155Z,74.81
2023-01-13T00:50:31.009Z,74.91
2023-01-13T00:53:02.934Z,74.75
2023-01-13T00:55:32.473Z,75.23
2023-01-13T00:58:03.828Z,75.17
2023-01-13T01:00:33.184Z,75.20
2023-01-13T01:03:01.194Z,75.15
2023-01-13T01:05:29.223Z,75.33
2023-01-13T01:07:57.110Z,74.97
2023-01-13T01:10:25.641Z,75.27
2023-01-13T01:12:54.398Z,75.26
2023-01-13T01:15:22.240Z,75.10
2023-01-13T01:17:50.379Z,75.19
2023-01-13T01:20:18.558Z,75.33
2023-01-13T01:22:46.628Z,75.26
2023-01-13T01:25:14.848Z,75.15
2023-01-13T01:27:42.712Z,75.12
2023-01-13T01:30:11.287Z,75.17
2023-01-13T01:32:39.246Z,75.13
2023-01-13T01:35:07.462Z,75.19
2023-01-13T01:37:35.366Z,75.05
2023-01-13T01:40:03.521Z,75.11
2023-01-13T01:42:53.133Z,74.91
2023-01-13T01:45:23.715Z,75.04
2023-01-13T01:47:57.966Z,74.99
2023-01-13T01:50:27.909Z,74.82
2023-01-13T01:53:17.378Z,74.64
2023-01-13T01:55:45.649Z,74.76
2023-01-13T01:58:23.326Z,74.54
2023-01-13T02:00:51.615Z,74.37
2023-01-13T02:03:19.937Z,74.64
2023-01-13T02:05:47.815Z,74.31
2023-01-13T02:08:15.914Z,74.27
2023-01-13T02:10:47.022Z,74.29
2023-01-13T02:13:16.275Z,74.24
2023-01-13T02:15:56.244Z,74.05
2023-01-13T02:18:38.959Z,74.19
2023-01-13T02:21:42.487Z,74.08
2023-01-13T02:24:59.061Z,73.96
2023-01-13T02:27:45.479Z,73.96
2023-01-13T02:30:40.196Z,73.91
2023-01-13T02:33:19.048Z,73.71
2023-01-13T02:36:00.162Z,73.92
2023-01-13T02:38:42.283Z,73.96
2023-01-13T02:41:37.688Z,73.98
2023-01-13T02:44:06.917Z,73.92
2023-01-13T02:46:47.009Z,73.78
2023-01-13T02:49:21.763Z,73.82
2023-01-13T02:51:51.100Z,73.86
2023-01-13T02:54:22.875Z,73.74
2023-01-13T02:56:51.610Z,73.52
2023-01-13T02:59:21.211Z,73.65
2023-01-13T03:01:50.343Z,73.45
2023-01-13T03:04:50.146Z,73.81
2023-01-13T03:07:41.401Z,73.46
2023-01-13T03:10:28.627Z,73.64
2023-01-13T03:12:56.705Z,73.53
2023-01-13T03:15:44.335Z,73.51
2023-01-13T03:18:57.331Z,73.93
2023-01-13T03:21:43.967Z,74.04
2023-01-13T03:24:28.633Z,74.06
2023-01-13T03:27:04.771Z,74.40
2023-01-13T03:30:01.903Z,74.28
2023-01-13T03:32:37.029Z,74.34
2023-01-13T03:35:08.440Z,74.52
2023-01-13T03:37:39.745Z,74.63
2023-01-13T03:40:14.741Z,74.45
2023-01-13T03:43:07.875Z,74.17
2023-01-13T03:45:36.551Z,74.24
2023-01-13T03:48:09.321Z,74.01
2023-01-13T03:50:51.829Z,74.06
2023-01-13T03:53:30.615Z,74.10
2023-01-13T03:56:03.033Z,74.05
2023-01-13T03:58:34.295Z,73.92
2023-01-13T04:01:08.683Z,74.15
2023-01-13T04:03:41.750Z,74.08
2023-01-13T04:06:09.760Z,74.07
2023-01-13T04:08:42.644Z,73.84
2023-01-13T04:11:16.914Z,73.71
2023-01-13T04:13:46.144Z,73.59
2023-01-13T04:16:14.046Z,73.50
2023-01-13T04:18:41.896Z,73.72
2023-01-13T04:21:10.241Z,73.64
2023-01-13T04:23:38.113Z,73.73
2023-01-13T04:26:06.383Z,73.93
2023-01-13T04:28:35.177Z,73.84
2023-01-13T04:31:03.031Z,73.71
2023-01-13T04:33:30.990Z,73.85
2023-01-13T04:35:58.957Z,73.28
2023-01-13T04:38:26.759Z,73.23
2023-01-13T04:40:55.092Z,73.71
2023-01-13T04:43:23.043Z,73.56
2023-01-13T04:45:50.823Z,73.55
2023-01-13T04:48:18.958Z,73.40
2023-01-13T04:50:46.887Z,73.58
2023-01-13T04:53:14.654Z,73.66
2023-01-13T04:55:44.456Z,73.58
2023-01-13T04:58:12.430Z,73.69
2023-01-13T05:00:40.251Z,73.55
2023-01-13T05:03:08.334Z,73.32
2023-01-13T05:05:36.243Z,73.76
2023-01-13T05:08:04.787Z,73.84
2023-01-13T05:10:32.874Z,73.53
2023-01-13T05:13:19.459Z,73.26
2023-01-13T05:16:06.866Z,73.39
2023-01-13T05:18:35.115Z,73.52
2023-01-13T05:21:03.159Z,73.23
2023-01-13T05:23:49.664Z,73.55
2023-01-13T05:26:17.733Z,73.32
2023-01-13T05:28:45.733Z,73.60
2023-01-13T05:31:15.111Z,73.40
2023-01-13T05:33:43.444Z,73.59
2023-01-13T05:36:11.627Z,73.46
2023-01-13T05:38:39.420Z,73.39
2023-01-13T05:41:28.446Z,73.45
2023-01-13T05:43:56.627Z,73.07
2023-01-13T05:46:24.680Z,73.25
2023-01-13T05:48:52.531Z,73.19
2023-01-13T05:51:26.262Z,73.25
2023-01-13T05:53:54.624Z,73.54
2023-01-13T05:56:22.426Z,73.52
2023-01-13T05:58:50.526Z,73.69
2023-01-13T06:01:18.463Z,73.59
2023-01-13T06:03:46.223Z,73.59
2023-01-13T06:06:13.952Z,73.65
2023-01-13T06:08:41.974Z,73.44
2023-01-13T06:11:09.844Z,73.66
2023-01-13T06:13:37.625Z,73.44
2023-01-13T06:16:06.006Z,73.45
2023-01-13T06:18:33.838Z,73.51
2023-01-13T06:21:01.823Z,73.57
2023-01-13T06:23:32.091Z,73.67
2023-01-13T06:25:59.915Z,73.78
2023-01-13T06:28:27.836Z,73.45
2023-01-13T06:30:58.281Z,73.64
2023-01-13T06:33:30.831Z,73.31
2023-01-13T06:36:00.049Z,73.40
2023-01-13T06:38:28.701Z,73.38
2023-01-13T06:40:56.505Z,73.39
2023-01-13T06:43:24.547Z,73.49
2023-01-13T06:45:55.051Z,73.44
2023-01-13T06:48:25.649Z,73.49
2023-01-13T06:50:54.045Z,73.74
2023-01-13T06:53:21.912Z,73.72
2023-01-13T06:55:49.970Z,73.57
2023-01-13T06:58:18.016Z,73.70
2023-01-13T07:00:49.854Z,73.67
2023-01-13T07:03:19.384Z,73.75
2023-01-13T07:05:55.285Z,73.54
2023-01-13T07:08:24.163Z,73.43
2023-01-13T07:10:53.183Z,73.37
2023-01-13T07:13:40.227Z,73.61
2023-01-13T07:16:10.202Z,73.49
2023-01-13T07:18:38.272Z,73.47
2023-01-13T07:21:08.541Z,73.45
2023-01-13T07:23:38.391Z,73.56
2023-01-13T07:26:07.186Z,73.58
2023-01-13T07:28:36.327Z,73.58
2023-01-13T07:31:04.669Z,73.37
2023-01-13T07:33:33.421Z,73.28
2023-01-13T07:36:03.561Z,73.42
2023-01-13T07:38:32.899Z,73.34
2023-01-13T07:41:24.333Z,73.51
2023-01-13T07:43:52.481Z,73.54
2023-01-13T07:46:20.490Z,73.55
2023-01-13T07:48:49.266Z,73.77
2023-01-13T07:51:17.556Z,73.38
2023-01-13T07:53:45.625Z,73.47
2023-01-13T07:56:13.699Z,73.27
2023-01-13T07:58:41.846Z,73.24
2023-01-13T08:01:12.404Z,73.09
2023-01-13T08:03:40.742Z,73.19
2023-01-13T08:06:10.253Z,73.40
2023-01-13T08:08:38.690Z,73.34
2023-01-13T08:11:07.757Z,73.36
2023-01-13T08:13:35.956Z,73.50
2023-01-13T08:16:09.920Z,73.28
2023-01-13T08:18:41.262Z,73.40
2023-01-13T08:21:12.445Z,73.40
2023-01-13T08:23:41.956Z,73.31
2023-01-13T08:26:16.420Z,73.14
2023-01-13T08:28:46.147Z,73.16
2023-01-13T08:31:16.789Z,73.35
2023-01-13T08:33:45.077Z,73.01
2023-01-13T08:36:14.009Z,73.19
2023-01-13T08:38:42.385Z,72.98
2023-01-13T08:41:15.866Z,73.24
2023-01-13T08:43:43.886Z,73.31
2023-01-13T08:46:11.755Z,73.15
2023-01-13T08:48:39.847Z,73.23
2023-01-13T08:51:09.292Z,73.43
2023-01-13T08:53:37.261Z,73.17
2023-01-13T08:56:13.268Z,73.14
2023-01-13T08:58:41.448Z,73.25
2023-01-13T09:01:13.930Z,73.17
2023-01-13T09:03:42.206Z,73.26
2023-01-13T09:06:10.120Z,73.31
2023-01-13T09:08:37.925Z,73.47
2023-01-13T09:11:25.704Z,73.26
2023-01-13T09:13:53.816Z,73.59
2023-01-13T09:16:21.597Z,73.95
2023-01-13T09:18:49.362Z,74.09
2023-01-13T09:21:19.838Z,74.23
2023-01-13T09:23:48.249Z,74.35
2023-01-13T09:26:21.241Z,74.49
2023-01-13T09:28:49.392Z,74.74
2023-01-13T09:31:20.043Z,75.01
2023-01-13T09:34:06.871Z,74.55
2023-01-13T09:36:35.050Z,74.55
2023-01-13T09:39:02.923Z,74.43
2023-01-13T09:41:49.988Z,74.54
2023-01-13T09:44:28.066Z,74.47
2023-01-13T09:47:02.397Z,74.37
2023-01-13T09:49:39.538Z,74.58
2023-01-13T09:52:07.325Z,74.28
2023-01-13T09:54:41.373Z,74.33
2023-01-13T09:57:14.429Z,74.52
2023-01-13T09:59:43.137Z,74.59
2023-01-13T10:02:33.147Z,74.55
2023-01-13T10:05:15.217Z,74.42
2023-01-13T10:08:13.501Z,74.43
2023-01-13T10:10:55.275Z,74.42
2023-01-13T10:13:26.610Z,74.76
2023-01-13T10:16:03.215Z,74.65
2023-01-13T10:19:07.082Z,74.43
2023-01-13T10:21:40.878Z,74.66
2023-01-13T10:24:23.904Z,74.67
2023-01-13T10:27:04.067Z,74.55
2023-01-13T10:29:32.647Z,74.37
2023-01-13T10:32:01.102Z,74.27
2023-01-13T10:34:29.940Z,73.86
2023-01-13T10:37:03.768Z,73.81
2023-01-13T10:39:44.232Z,73.85
2023-01-13T10:42:22.395Z,74.07
2023-01-13T10:44:54.480Z,74.38
2023-01-13T10:47:25.761Z,73.97
2023-01-13T10:50:03.245Z,74.30
2023-01-13T10:52:33.991Z,74.23
2023-01-13T10:55:02.517Z,73.97
2023-01-13T10:57:36.754Z,73.70
2023-01-13T11:00:06.023Z,73.55
2023-01-13T11:02:36.099Z,73.65
2023-01-13T11:05:24.984Z,73.31
2023-01-13T11:07:56.392Z,73.30
2023-01-13T11:10:27.551Z,73.46
2023-01-13T11:13:14.600Z,73.53
2023-01-13T11:16:03.993Z,73.26
2023-01-13T11:18:38.007Z,73.28
2023-01-13T11:21:26.165Z,73.22
2023-01-13T11:24:40.678Z,73.23
2023-01-13T11:27:18.922Z,73.06
2023-01-13T11:29:59.621Z,73.01
2023-01-13T11:32:28.782Z,73.00
2023-01-13T11:35:04.419Z,73.23
2023-01-13T11:37:34.912Z,72.88
2023-01-13T11:40:05.983Z,72.87
2023-01-13T11:42:37.141Z,72.53
2023-01-13T11:45:17.030Z,72.70
2023-01-13T11:47:49.122Z,72.75
2023-01-13T11:50:34.931Z,72.49
2023-01-13T11:53:21.246Z,72.71
2023-01-13T11:56:12.618Z,72.84
2023-01-13T11:58:59.030Z,72.46
2023-01-13T12:01:48.593Z,72.74
2023-01-13T12:04:32.620Z,72.74
2023-01-13T12:07:23.177Z,72.65
2023-01-13T12:10:13.224Z,72.54
2023-01-13T12:12:53.276Z,72.80
2023-01-13T12:15:21.816Z,72.62
2023-01-13T12:17:56.342Z,72.60
2023-01-13T12:20:35.358Z,72.67
2023-01-13T12:23:07.923Z,72.25
2023-01-13T12:25:40.331Z,72.25
2023-01-13T12:28:21.194Z,72.42
2023-01-13T12:30:52.344Z,72.23
2023-01-13T12:33:20.717Z,72.01
2023-01-13T12:35:58.815Z,72.14
2023-01-13T12:38:49.115Z,72.01
2023-01-13T12:41:27.635Z,72.06
2023-01-13T12:44:14.014Z,72.22
2023-01-13T12:46:53.568Z,72.38
2023-01-13T12:49:32.347Z,72.37
2023-01-13T12:52:11.381Z,72.57
2023-01-13T12:54:39.375Z,72.44
2023-01-13T12:57:27.781Z,72.49
2023-01-13T13:00:04.919Z,72.31
2023-01-13T13:02:36.653Z,72.37
2023-01-13T13:05:37.561Z,72.33
2023-01-13T13:08:16.871Z,72.29
2023-01-13T13:11:33.198Z,72.32
2023-01-13T13:14:02.952Z,72.24
2023-01-13T13:16:30.847Z,72.19
2023-01-13T13:19:17.937Z,71.95
2023-01-13T13:22:14.307Z,71.86
2023-01-13T13:24:51.273Z,72.03
2023-01-13T13:27:42.429Z,72.18
2023-01-13T13:30:32.146Z,71.92
2023-01-13T13:33:12.708Z,71.82
2023-01-13T13:35:52.722Z,71.83
2023-01-13T13:38:46.017Z,71.71
2023-01-13T13:41:38.643Z,71.79
2023-01-13T13:44:50.691Z,71.71
2023-01-13T13:47:18.514Z,71.67
2023-01-13T13:49:53.925Z,71.71
2023-01-13T13:52:27.421Z,72.04
2023-01-13T13:54:59.618Z,71.88
2023-01-13T13:57:39.440Z,71.72
2023-01-13T14:00:32.249Z,71.64
2023-01-13T14:03:06.352Z,71.86
2023-01-13T14:05:36.171Z,71.61
2023-01-13T14:08:15.671Z,71.82
2023-01-13T14:10:45.705Z,71.60
2023-01-13T14:13:28.290Z,71.85
2023-01-13T14:16:03.343Z,71.57
2023-01-13T14:18:33.911Z,71.68
2023-01-13T14:21:21.121Z,71.78
2023-01-13T14:24:02.093Z,72.36
2023-01-13T14:26:32.290Z,73.06
2023-01-13T14:29:02.363Z,73.43
2023-01-13T14:31:30.654Z,73.65
2023-01-13T14:34:01.852Z,73.86
2023-01-13T14:36:39.153Z,73.74
2023-01-13T14:39:07.097Z,73.99
2023-01-13T14:41:36.279Z,74.11
2023-01-13T14:44:19.147Z,74.30
2023-01-13T14:46:47.198Z,74.42
2023-01-13T14:49:41.715Z,74.75
2023-01-13T14:52:09.664Z,74.82
2023-01-13T14:54:51.073Z,74.74
2023-01-13T14:57:25.419Z,74.76
2023-01-13T15:00:16.544Z,74.79
2023-01-13T15:02:53.771Z,74.90
2023-01-13T15:05:24.844Z,74.99
2023-01-13T15:07:57.087Z,74.89
2023-01-13T15:10:34.958Z,75.23
2023-01-13T15:13:05.466Z,75.67
2023-01-13T15:15:36.059Z,75.58
2023-01-13T15:18:15.222Z,75.86
2023-01-13T15:20:43.452Z,76.05
2023-01-13T15:23:11.641Z,75.92
2023-01-13T15:25:42.012Z,76.02
2023-01-13T15:28:23.245Z,76.01
2023-01-13T15:30:52.674Z,76.23
2023-01-13T15:33:22.064Z,76.06
2023-01-13T15:35:52.392Z,76.44
2023-01-13T15:38:22.001Z,76.25
2023-01-13T15:40:51.184Z,76.35
2023-01-13T15:43:42.411Z,76.35
2023-01-13T15:46:32.340Z,76.09
2023-01-13T15:49:02.750Z,76.18
2023-01-13T15:51:30.593Z,75.98
2023-01-13T15:54:02.544Z,76.24
2023-01-13T15:56:30.777Z,76.06
2023-01-13T15:58:58.773Z,75.97
2023-01-13T16:01:26.767Z,76.06
2023-01-13T16:03:56.557Z,76.11
2023-01-13T16:06:32.462Z,76.19
2023-01-13T16:09:02.031Z,76.16
2023-01-13T16:11:31.628Z,76.48
2023-01-13T16:13:59.621Z,76.47
2023-01-13T16:16:28.849Z,76.66
2023-01-13T16:18:57.066Z,76.75
2023-01-13T16:21:25.285Z,76.79
2023-01-13T16:23:53.455Z,76.85
2023-01-13T16:26:24.642Z,76.85
2023-01-13T16:28:54.557Z,76.92
2023-01-13T16:31:27.122Z,76.84
2023-01-13T16:33:55.615Z,76.75
2023-01-13T16:36:23.760Z,76.76
2023-01-13T16:38:52.598Z,76.49
2023-01-13T16:41:21.842Z,76.48
2023-01-13T16:43:49.971Z,76.36
2023-01-13T16:46:24.643Z,76.30
2023-01-13T16:48:57.828Z,76.20
2023-01-13T16:51:25.838Z,76.22
2023-01-13T16:53:54.122Z,76.19
2023-01-13T16:56:34.115Z,76.42
2023-01-13T16:59:13.566Z,76.52
2023-01-13T17:01:43.481Z,76.51
2023-01-13T17:04:17.250Z,76.47
2023-01-13T17:06:51.542Z,76.43
2023-01-13T17:09:22.771Z,76.59
2023-01-13T17:11:50.886Z,76.43
2023-01-13T17:14:22.104Z,76.36
2023-01-13T17:16:52.305Z,76.13
2023-01-13T17:19:22.038Z,76.40
2023-01-13T17:21:51.249Z,76.29
2023-01-13T17:24:19.261Z,76.27
2023-01-13T17:26:49.372Z,76.23
2023-01-13T17:29:23.099Z,76.30
2023-01-13T17:31:51.630Z,76.32
2023-01-13T17:34:20.135Z,76.60
2023-01-13T17:36:48.553Z,76.37
2023-01-13T17:39:21.956Z,76.74
2023-01-13T17:41:51.388Z,76.60
2023-01-13T17:44:21.142Z,76.63
2023-01-13T17:46:49.553Z,76.71
2023-01-13T17:49:19.164Z,76.61
2023-01-13T17:51:51.599Z,76.84
2023-01-13T17:54:19.779Z,76.71
2023-01-13T17:56:49.150Z,76.87
2023-01-13T17:59:19.924Z,76.62
2023-01-13T18:01:47.981Z,76.85
2023-01-13T18:04:22.142Z,76.86
2023-01-13T18:06:50.696Z,76.92
2023-01-13T18:09:19.150Z,77.06
2023-01-13T18:11:47.366Z,77.10
2023-01-13T18:14:15.475Z,77.02
2023-01-13T18:16:43.732Z,76.75
2023-01-13T18:19:30.351Z,76.70
2023-01-13T18:22:16.934Z,76.94
2023-01-13T18:25:03.312Z,76.90
2023-01-13T18:27:38.117Z,76.96
2023-01-13T18:30:07.055Z,76.92
2023-01-13T18:32:35.568Z,77.21
2023-01-13T18:35:09.136Z,76.73
2023-01-13T18:37:40.217Z,76.53
2023-01-13T18:40:10.635Z,76.98
2023-01-13T18:42:59.317Z,76.64
2023-01-13T18:45:32.226Z,76.67
2023-01-13T18:48:02.241Z,76.87
2023-01-13T18:50:31.032Z,76.90
2023-01-13T18:52:59.130Z,76.88
2023-01-13T18:55:28.863Z,76.80
2023-01-13T18:57:57.417Z,76.54
2023-01-13T19:00:27.208Z,76.57
2023-01-13T19:05:35.610Z,76.67
2023-01-13T19:08:04.579Z,76.63
2023-01-13T19:10:32.841Z,76.69
2023-01-13T19:13:01.728Z,76.58
2023-01-13T19:15:30.124Z,76.51
2023-01-13T19:17:58.104Z,76.75
2023-01-13T19:20:26.069Z,76.73
2023-01-13T19:22:55.100Z,76.92
2023-01-13T19:25:23.048Z,76.71
2023-01-13T19:27:50.889Z,76.92
2023-01-13T19:30:19.271Z,76.78
2023-01-13T19:32:47.429Z,77.14
2023-01-13T19:35:17.835Z,77.11
2023-01-13T19:37:46.043Z,77.00
2023-01-13T19:40:14.101Z,77.19
2023-01-13T19:43:03.724Z,77.32
2023-01-13T19:45:35.485Z,77.22
2023-01-13T19:48:05.660Z,77.13
2023-01-13T19:50:41.704Z,77.16
2023-01-13T19:53:16.216Z,77.15
2023-01-13T19:55:49.623Z,77.22
2023-01-13T19:58:20.614Z,77.42
2023-01-13T20:00:48.748Z,77.24
2023-01-13T20:03:20.804Z,77.23
2023-01-13T20:05:49.282Z,77.30
2023-01-13T20:08:19.395Z,77.20
2023-01-13T20:10:48.703Z,77.22
2023-01-13T20:13:17.171Z,77.25
2023-01-13T20:15:45.246Z,77.23
2023-01-13T20:18:13.261Z,77.18
2023-01-13T20:20:41.179Z,77.04
2023-01-13T20:23:09.617Z,77.16
2023-01-13T20:25:37.566Z,77.11
2023-01-13T20:28:06.837Z,76.95
2023-01-13T20:30:35.179Z,76.93
2023-01-13T20:33:03.180Z,76.88
2023-01-13T20:35:31.085Z,76.82
2023-01-13T20:37:59.197Z,76.96
2023-01-13T20:40:27.467Z,76.90
2023-01-13T20:42:56.583Z,76.75
2023-01-13T20:45:26.177Z,76.74
2023-01-13T20:47:54.384Z,77.06
2023-01-13T20:50:22.415Z,76.73
2023-01-13T20:52:52.830Z,76.78
2023-01-13T20:55:20.899Z,76.85
2023-01-13T20:57:51.502Z,76.86
2023-01-13T21:00:19.964Z,76.81
2023-01-13T21:02:47.913Z,76.80
2023-01-13T21:05:16.592Z,76.63
2023-01-13T21:07:44.763Z,76.14
2023-01-13T21:10:12.829Z,76.09
2023-01-13T21:12:59.518Z,75.72
2023-01-13T21:15:28.403Z,75.98
2023-01-13T21:18:15.550Z,75.63
2023-01-13T21:20:43.944Z,75.66
2023-01-13T21:23:11.854Z,75.49
2023-01-13T21:25:40.437Z,75.34
2023-01-13T21:28:13.626Z,75.37
2023-01-13T21:30:41.717Z,74.85
2023-01-13T21:33:13.544Z,75.20
2023-01-13T21:35:42.007Z,75.10
2023-01-13T21:38:10.922Z,75.23
2023-01-13T21:40:38.892Z,74.62
2023-01-13T21:43:25.279Z,74.63
2023-01-13T21:46:12.103Z,74.85
2023-01-13T21:48:40.219Z,74.89
2023-01-13T21:51:08.506Z,74.99
2023-01-13T21:53:36.304Z,74.82
2023-01-13T21:56:04.475Z,74.90
2023-01-13T21:58:32.751Z,75.24
2023-01-13T22:01:02.102Z,75.19
2023-01-13T22:03:30.226Z,75.28
2023-01-13T22:05:58.192Z,75.13
2023-01-13T22:08:26.353Z,75.37
2023-01-13T22:10:58.247Z,75.45
2023-01-13T22:13:47.604Z,75.05
2023-01-13T22:16:16.092Z,74.90
2023-01-13T22:18:44.246Z,75.06
2023-01-13T22:21:12.143Z,75.27
2023-01-13T22:23:40.172Z,75.25
2023-01-13T22:26:08.354Z,75.25
2023-01-13T22:28:43.636Z,75.52
2023-01-13T22:31:15.541Z,75.07
2023-01-13T22:33:47.337Z,75.38
2023-01-13T22:36:15.998Z,75.40
2023-01-13T22:38:44.352Z,75.35
2023-01-13T22:41:12.254Z,74.76
2023-01-13T22:43:40.434Z,75.06
2023-01-13T22:46:12.539Z,74.80
2023-01-13T22:48:41.045Z,74.83
2023-01-13T22:51:11.963Z,75.13
2023-01-13T22:53:41.457Z,75.17
2023-01-13T22:56:16.101Z,74.61
2023-01-13T22:58:45.121Z,74.96
2023-01-13T23:01:15.708Z,74.73
2023-01-13T23:03:47.651Z,74.62
2023-01-13T23:06:17.161Z,74.90
2023-01-13T23:08:45.295Z,74.42
2023-01-13T23:11:15.374Z,74.28
2023-01-13T23:13:44.188Z,74.55
2023-01-13T23:16:22.732Z,74.25
2023-01-13T23:18:50.904Z,73.86
2023-01-13T23:21:21.515Z,74.17
2023-01-13T23:23:50.400Z,74.01
2023-01-13T23:26:19.909Z,74.17
2023-01-13T23:28:48.570Z,74.28
2023-01-13T23:31:21.630Z,74.38
2023-01-13T23:33:49.646Z,73.99
2023-01-13T23:36:20.619Z,73.89
2023-01-13T23:38:48.488Z,73.74
2023-01-13T23:41:19.413Z,73.93
2023-01-13T23:43:52.297Z,73.64
2023-01-13T23:46:21.071Z,73.85
2023-01-13T23:48:49.821Z,73.84
2023-01-13T23:51:18.170Z,74.10
2023-01-13T23:53:49.245Z,74.07
2023-01-13T23:56:19.867Z,74.38
2023-01-13T23:58:48.492Z,73.96
